createdAt,value
2019-03-22T00:01:41.222Z,48.27
2019-03-22T00:04:10.401Z,48.13
2019-03-22T00:06:39.790Z,48.01
2019-03-22T00:09:09.018Z,48.47
2019-03-22T00:11:38.170Z,48.21
2019-03-22T00:14:07.359Z,48.18
2019-03-22T00:16:36.481Z,47.55
2019-03-22T00:19:05.614Z,48.43
2019-03-22T00:21:35.318Z,49.18
2019-03-22T00:24:04.454Z,49.03
2019-03-22T00:26:33.836Z,48.58
2019-03-22T00:29:03.041Z,48.06
2019-03-22T00:31:32.428Z,48.13
2019-03-22T00:34:01.576Z,48.50
2019-03-22T00:36:30.765Z,48.48
2019-03-22T00:38:59.938Z,47.99
2019-03-22T00:41:29.064Z,47.91
2019-03-22T00:43:58.212Z,47.70
2019-03-22T00:46:27.348Z,47.48
2019-03-22T00:48:56.478Z,47.13
2019-03-22T00:51:26.321Z,47.11
2019-03-22T00:53:55.441Z,47.88
2019-03-22T00:56:25.285Z,48.23
2019-03-22T00:58:54.673Z,48.39
2019-03-22T01:01:24.298Z,48.71
2019-03-22T01:03:53.433Z,49.34
2019-03-22T01:06:22.561Z,48.02
2019-03-22T01:08:51.705Z,48.74
2019-03-22T01:11:21.066Z,48.31
2019-03-22T01:13:50.224Z,48.00
2019-03-22T01:16:20.036Z,48.87
2019-03-22T01:18:49.410Z,48.62
2019-03-22T01:21:18.588Z,47.94
2019-03-22T01:23:48.450Z,47.76
2019-03-22T01:26:17.841Z,48.09
2019-03-22T01:28:46.953Z,48.13
2019-03-22T01:31:16.108Z,47.78
2019-03-22T01:33:45.247Z,48.49
2019-03-22T01:36:15.574Z,48.18
2019-03-22T01:38:44.972Z,47.73
2019-03-22T01:41:14.359Z,48.23
2019-03-22T01:43:43.758Z,48.72
2019-03-22T01:46:12.891Z,48.83
2019-03-22T01:48:42.980Z,47.72
2019-03-22T01:51:12.586Z,50.19
2019-03-22T01:53:41.716Z,49.19
2019-03-22T01:56:10.919Z,48.79
2019-03-22T01:58:40.054Z,48.67
2019-03-22T02:01:09.258Z,48.21
2019-03-22T02:03:38.407Z,47.96
2019-03-22T02:06:07.597Z,48.79
2019-03-22T02:08:36.953Z,48.34
2019-03-22T02:11:06.221Z,48.50
2019-03-22T02:13:35.455Z,48.64
2019-03-22T02:16:05.177Z,48.18
2019-03-22T02:18:34.313Z,48.22
2019-03-22T02:21:03.484Z,48.27
2019-03-22T02:23:32.856Z,47.09
2019-03-22T02:26:01.977Z,48.18
2019-03-22T02:28:31.121Z,48.67
2019-03-22T02:31:00.276Z,47.00
2019-03-22T02:33:30.140Z,47.72
2019-03-22T02:35:59.281Z,47.20
2019-03-22T02:38:28.645Z,48.15
2019-03-22T02:40:57.990Z,48.84
2019-03-22T02:43:27.371Z,48.61
2019-03-22T02:45:56.506Z,48.04
2019-03-22T02:48:25.639Z,47.61
2019-03-22T02:50:56.262Z,46.91
2019-03-22T02:53:25.718Z,47.34
2019-03-22T02:55:55.223Z,47.78
2019-03-22T02:58:24.441Z,47.69
2019-03-22T03:00:53.787Z,47.72
2019-03-22T03:03:22.924Z,47.53
2019-03-22T03:05:52.050Z,47.17
2019-03-22T03:08:21.659Z,46.98
2019-03-22T03:10:51.023Z,47.49
2019-03-22T03:13:20.385Z,47.85
2019-03-22T03:15:49.584Z,47.49
2019-03-22T03:18:18.698Z,47.15
2019-03-22T03:20:48.064Z,47.45
2019-03-22T03:23:17.500Z,47.55
2019-03-22T03:25:46.903Z,47.17
2019-03-22T03:28:16.049Z,47.15
2019-03-22T03:30:45.567Z,47.34
2019-03-22T03:33:15.500Z,48.33
2019-03-22T03:35:44.849Z,48.99
2019-03-22T03:38:14.036Z,47.75
2019-03-22T03:40:43.403Z,48.06
2019-03-22T03:43:12.559Z,49.21
2019-03-22T03:45:41.713Z,46.56
2019-03-22T03:48:10.933Z,45.33
2019-03-22T03:50:40.468Z,45.25
2019-03-22T03:53:10.034Z,44.66
2019-03-22T03:55:39.454Z,44.57
2019-03-22T03:58:08.594Z,45.22
2019-03-22T04:00:37.708Z,44.78
2019-03-22T04:03:07.165Z,45.84
2019-03-22T04:05:36.311Z,45.89
2019-03-22T04:08:05.722Z,45.66
2019-03-22T04:10:35.286Z,46.36
2019-03-22T04:13:04.439Z,46.71
2019-03-22T04:15:33.829Z,46.51
2019-03-22T04:18:02.938Z,45.91
2019-03-22T04:20:32.092Z,45.86
2019-03-22T04:23:01.457Z,45.26
2019-03-22T04:25:30.664Z,45.31
2019-03-22T04:27:59.809Z,46.06
2019-03-22T04:30:29.080Z,45.86
2019-03-22T04:32:58.459Z,46.40
2019-03-22T04:35:27.809Z,45.98
2019-03-22T04:37:57.435Z,46.42
2019-03-22T04:40:27.575Z,46.26
2019-03-22T04:42:57.100Z,46.09
2019-03-22T04:45:27.252Z,46.14
2019-03-22T04:48:00.949Z,45.84
2019-03-22T04:50:30.534Z,46.19
2019-03-22T04:53:00.400Z,45.50
2019-03-22T04:55:29.933Z,45.03
2019-03-22T04:57:59.867Z,45.62
2019-03-22T05:00:29.091Z,46.31
2019-03-22T05:02:59.204Z,45.77
2019-03-22T05:05:28.395Z,45.55
2019-03-22T05:07:57.887Z,45.32
2019-03-22T05:10:27.206Z,45.06
2019-03-22T05:12:57.613Z,45.28
2019-03-22T05:15:27.736Z,46.30
2019-03-22T05:17:56.933Z,46.72
2019-03-22T05:20:26.129Z,46.45
2019-03-22T05:22:56.864Z,46.44
2019-03-22T05:25:26.445Z,48.38
2019-03-22T05:27:57.041Z,46.47
2019-03-22T05:31:10.694Z,46.58
2019-03-22T05:33:40.059Z,46.17
2019-03-22T05:36:09.421Z,45.93
2019-03-22T05:38:38.988Z,45.36
2019-03-22T05:41:08.101Z,45.82
2019-03-22T05:43:37.484Z,46.05
2019-03-22T05:46:06.886Z,45.65
2019-03-22T05:48:36.389Z,46.09
2019-03-22T05:51:05.712Z,45.54
2019-03-22T05:53:35.281Z,46.16
2019-03-22T05:56:05.574Z,45.17
2019-03-22T05:58:34.940Z,45.35
2019-03-22T06:01:04.540Z,45.60
2019-03-22T06:03:33.664Z,46.87
2019-03-22T06:06:02.786Z,47.80
2019-03-22T06:08:31.924Z,46.61
2019-03-22T06:11:01.100Z,46.64
2019-03-22T06:13:30.232Z,45.01
2019-03-22T06:15:59.422Z,45.33
2019-03-22T06:18:29.265Z,45.39
2019-03-22T06:20:58.624Z,45.90
2019-03-22T06:23:27.977Z,45.33
2019-03-22T06:25:57.135Z,44.64
2019-03-22T06:28:26.319Z,44.08
2019-03-22T06:30:55.461Z,44.82
2019-03-22T06:33:24.578Z,43.83
2019-03-22T06:35:53.819Z,42.87
2019-03-22T06:38:22.967Z,45.61
2019-03-22T06:40:52.092Z,43.97
2019-03-22T06:43:21.218Z,42.51
2019-03-22T06:45:50.370Z,41.87
2019-03-22T06:48:19.482Z,39.49
2019-03-22T06:50:48.662Z,38.60
2019-03-22T06:53:18.072Z,34.21
2019-03-22T06:55:47.218Z,32.80
2019-03-22T06:58:16.374Z,32.05
2019-03-22T07:00:45.642Z,33.22
2019-03-22T07:03:15.539Z,32.26
2019-03-22T07:05:44.650Z,31.62
2019-03-22T07:08:13.812Z,30.28
2019-03-22T07:10:43.177Z,29.71
2019-03-22T07:13:12.340Z,30.22
2019-03-22T07:15:41.507Z,30.24
2019-03-22T07:18:10.662Z,32.13
2019-03-22T07:20:39.815Z,32.33
2019-03-22T07:23:08.943Z,30.93
2019-03-22T07:25:38.085Z,29.38
2019-03-22T07:28:07.184Z,29.11
2019-03-22T07:30:36.325Z,27.03
2019-03-22T07:33:05.439Z,27.39
2019-03-22T07:35:34.808Z,25.92
2019-03-22T07:38:04.261Z,24.96
2019-03-22T07:40:33.390Z,25.58
2019-03-22T07:43:02.795Z,25.53
2019-03-22T07:45:32.171Z,25.37
2019-03-22T07:48:01.567Z,24.90
2019-03-22T07:50:31.184Z,25.08
2019-03-22T07:53:00.418Z,24.80
2019-03-22T07:55:29.800Z,25.46
2019-03-22T07:57:59.117Z,25.90
2019-03-22T08:00:31.093Z,24.86
2019-03-22T08:02:59.222Z,24.74
2019-03-22T08:05:28.598Z,24.51
2019-03-22T08:07:57.728Z,23.48
2019-03-22T08:10:27.103Z,23.79
2019-03-22T08:12:56.372Z,22.26
2019-03-22T08:15:31.626Z,23.15
2019-03-22T08:18:01.325Z,25.03
2019-03-22T08:20:30.570Z,22.59
2019-03-22T08:22:59.850Z,21.82
2019-03-22T08:25:29.015Z,23.81
2019-03-22T08:27:58.356Z,22.34
2019-03-22T08:30:28.165Z,21.36
2019-03-22T08:32:57.320Z,19.27
2019-03-22T08:35:26.425Z,18.10
2019-03-22T08:37:55.539Z,17.97
2019-03-22T08:40:24.674Z,18.80
2019-03-22T08:42:53.771Z,17.91
2019-03-22T08:45:22.962Z,18.05
2019-03-22T08:47:52.358Z,18.96
2019-03-22T08:50:21.502Z,17.36
2019-03-22T08:52:50.631Z,17.77
2019-03-22T08:55:20.029Z,18.05
2019-03-22T08:57:49.204Z,17.43
2019-03-22T09:00:18.354Z,16.97
2019-03-22T09:02:49.696Z,17.07
2019-03-22T09:05:18.491Z,19.38
2019-03-22T09:07:47.627Z,19.25
2019-03-22T09:10:17.282Z,20.15
2019-03-22T09:12:46.407Z,19.85
2019-03-22T09:15:15.724Z,20.48
2019-03-22T09:17:44.846Z,20.66
2019-03-22T09:23:40.473Z,18.69
2019-03-22T09:26:10.052Z,18.04
2019-03-22T09:28:39.837Z,19.71
2019-03-22T09:31:10.449Z,18.32
2019-03-22T09:37:09.271Z,17.72
2019-03-22T09:39:38.555Z,18.61
2019-03-22T09:42:08.132Z,17.95
2019-03-22T09:44:43.110Z,17.78
2019-03-22T09:47:08.195Z,17.19
2019-03-22T09:49:37.395Z,16.37
2019-03-22T09:52:06.881Z,15.89
2019-03-22T09:54:35.997Z,15.72
2019-03-22T09:57:05.524Z,16.26
2019-03-22T09:59:34.661Z,15.75
2019-03-22T10:02:03.803Z,15.71
2019-03-22T10:04:32.930Z,15.75
2019-03-22T10:07:02.310Z,15.59
2019-03-22T10:09:31.452Z,15.59
2019-03-22T10:12:00.567Z,17.17
2019-03-22T10:14:31.379Z,15.86
2019-03-22T10:17:00.975Z,16.25
2019-03-22T10:19:30.519Z,16.26
2019-03-22T10:22:00.222Z,15.16
2019-03-22T10:24:29.841Z,15.96
2019-03-22T10:26:59.110Z,15.94
2019-03-22T10:29:28.838Z,15.25
2019-03-22T10:31:58.033Z,15.33
2019-03-22T10:34:27.163Z,15.79
2019-03-22T10:36:56.534Z,16.28
2019-03-22T10:39:25.779Z,16.81
2019-03-22T10:41:55.003Z,16.80
2019-03-22T10:44:24.642Z,17.94
2019-03-22T10:46:53.828Z,17.36
2019-03-22T10:49:22.961Z,16.76
2019-03-22T10:51:57.546Z,15.75
2019-03-22T10:54:23.016Z,17.70
2019-03-22T10:56:52.414Z,16.35
2019-03-22T10:59:21.800Z,16.26
2019-03-22T11:02:03.312Z,17.08
2019-03-22T11:04:27.852Z,16.73
2019-03-22T11:06:57.013Z,15.65
2019-03-22T11:09:26.185Z,16.01
2019-03-22T11:11:55.314Z,16.93
2019-03-22T11:14:24.695Z,18.03
2019-03-22T11:16:54.110Z,17.87
2019-03-22T11:19:23.348Z,19.28
2019-03-22T11:21:52.494Z,18.24
2019-03-22T11:24:21.674Z,18.75
2019-03-22T11:26:51.045Z,17.62
2019-03-22T11:29:21.186Z,19.00
2019-03-22T11:31:50.577Z,19.56
2019-03-22T11:34:19.947Z,19.11
2019-03-22T11:36:59.475Z,17.78
2019-03-22T11:39:28.643Z,19.12
2019-03-22T11:41:57.800Z,19.72
2019-03-22T11:44:26.951Z,18.21
2019-03-22T11:46:56.124Z,17.61
2019-03-22T11:49:25.645Z,17.88
2019-03-22T11:51:54.909Z,16.80
2019-03-22T11:54:24.063Z,17.24
2019-03-22T11:56:53.754Z,17.43
2019-03-22T11:59:22.899Z,17.66
2019-03-22T12:01:52.110Z,16.90
2019-03-22T12:04:21.253Z,16.35
2019-03-22T12:06:50.740Z,16.90
2019-03-22T12:09:19.864Z,17.15
2019-03-22T12:11:49.023Z,19.04
2019-03-22T12:14:18.194Z,19.17
2019-03-22T12:16:47.341Z,18.61
2019-03-22T12:19:16.793Z,18.71
2019-03-22T12:21:46.408Z,16.63
2019-03-22T12:24:15.832Z,17.08
2019-03-22T12:26:44.995Z,18.98
2019-03-22T12:29:14.380Z,18.16
2019-03-22T12:31:43.805Z,17.57
2019-03-22T12:34:12.998Z,16.81
2019-03-22T12:36:42.987Z,17.38
2019-03-22T12:39:12.273Z,18.83
2019-03-22T12:41:41.460Z,19.18
2019-03-22T12:44:10.633Z,20.10
2019-03-22T12:46:40.470Z,21.26
2019-03-22T12:49:09.866Z,21.42
2019-03-22T12:51:39.017Z,21.89
2019-03-22T12:54:08.439Z,23.31
2019-03-22T12:56:37.628Z,22.54
2019-03-22T12:59:06.768Z,22.44
2019-03-22T13:01:37.242Z,23.55
2019-03-22T13:04:06.525Z,24.81
2019-03-22T13:06:35.675Z,24.59
2019-03-22T13:09:09.398Z,24.20
2019-03-22T13:11:52.545Z,24.92
2019-03-22T13:14:56.918Z,24.39
2019-03-22T13:17:28.977Z,23.88
2019-03-22T13:19:58.610Z,25.58
2019-03-22T13:22:31.205Z,24.41
2019-03-22T13:25:03.866Z,25.76
2019-03-22T13:27:34.066Z,26.37
2019-03-22T13:30:19.356Z,25.00
2019-03-22T13:32:53.295Z,24.39
2019-03-22T13:35:22.838Z,24.16
2019-03-22T13:37:52.449Z,23.93
2019-03-22T13:40:22.566Z,24.66
2019-03-22T13:42:53.920Z,24.14
2019-03-22T13:45:29.684Z,24.30
2019-03-22T13:47:59.200Z,24.67
2019-03-22T13:50:34.458Z,24.70
2019-03-22T13:53:03.977Z,26.23
2019-03-22T13:55:35.807Z,25.07
2019-03-22T13:58:16.216Z,26.02
2019-03-22T14:00:46.182Z,25.82
2019-03-22T14:03:18.566Z,26.06
2019-03-22T14:05:47.720Z,25.59
2019-03-22T14:08:19.699Z,24.78
2019-03-22T14:10:49.658Z,25.89
2019-03-22T14:13:19.651Z,27.22
2019-03-22T14:16:05.570Z,27.15
2019-03-22T14:18:37.103Z,25.00
2019-03-22T14:21:06.879Z,26.29
2019-03-22T14:23:36.417Z,25.60
2019-03-22T14:26:06.617Z,25.83
2019-03-22T14:28:35.835Z,25.97
2019-03-22T14:31:05.120Z,26.45
2019-03-22T14:33:35.320Z,25.75
2019-03-22T14:36:05.023Z,26.27
2019-03-22T14:38:36.047Z,25.97
2019-03-22T14:41:12.097Z,26.49
2019-03-22T14:43:44.534Z,26.23
2019-03-22T14:46:14.125Z,25.45
2019-03-22T14:48:49.514Z,26.10
2019-03-22T14:51:19.484Z,25.74
2019-03-22T14:53:48.641Z,28.29
2019-03-22T14:56:18.886Z,26.45
2019-03-22T14:58:48.278Z,25.97
2019-03-22T15:01:19.614Z,26.35
2019-03-22T15:03:51.369Z,26.42
2019-03-22T15:06:21.677Z,26.52
2019-03-22T15:08:51.717Z,27.49
2019-03-22T15:11:23.831Z,27.49
2019-03-22T15:14:19.483Z,27.92
2019-03-22T15:17:06.652Z,25.74
2019-03-22T15:19:58.843Z,27.04
2019-03-22T15:22:53.229Z,25.60
2019-03-22T15:25:47.716Z,27.13
2019-03-22T15:29:22.705Z,26.10
2019-03-22T15:32:09.683Z,26.10
2019-03-22T15:34:48.810Z,26.33
2019-03-22T15:37:30.269Z,25.83
2019-03-22T15:40:02.529Z,25.98
2019-03-22T15:42:32.142Z,25.78
2019-03-22T15:45:01.513Z,26.03
2019-03-22T15:47:31.428Z,25.03
2019-03-22T15:50:00.612Z,26.04
2019-03-22T15:52:30.071Z,26.10
2019-03-22T15:55:00.502Z,26.31
2019-03-22T15:57:29.651Z,25.29
2019-03-22T15:59:59.079Z,25.72
2019-03-22T16:02:28.728Z,24.51
2019-03-22T16:04:57.879Z,24.83
2019-03-22T16:07:27.357Z,24.01
2019-03-22T16:09:56.742Z,25.91
2019-03-22T16:12:25.992Z,25.57
2019-03-22T16:14:55.162Z,25.74
2019-03-22T16:17:24.316Z,25.06
2019-03-22T16:19:53.560Z,25.39
2019-03-22T16:22:22.834Z,25.89
2019-03-22T16:24:52.374Z,25.49
2019-03-22T16:27:21.735Z,26.21
2019-03-22T16:29:50.934Z,25.50
2019-03-22T16:32:20.100Z,25.75
2019-03-22T16:34:49.257Z,24.95
2019-03-22T16:37:18.419Z,25.46
2019-03-22T16:39:47.614Z,25.37
2019-03-22T16:42:16.789Z,25.74
2019-03-22T16:44:45.981Z,27.34
2019-03-22T16:47:15.229Z,25.62
2019-03-22T16:49:44.801Z,27.50
2019-03-22T16:52:13.970Z,27.25
2019-03-22T16:54:43.126Z,27.73
2019-03-22T16:57:12.597Z,27.57
2019-03-22T16:59:41.990Z,27.38
2019-03-22T17:02:11.395Z,27.41
2019-03-22T17:04:40.554Z,27.72
2019-03-22T17:07:10.474Z,27.66
2019-03-22T17:09:39.695Z,27.27
2019-03-22T17:12:09.212Z,26.63
2019-03-22T17:14:38.375Z,27.23
2019-03-22T17:17:07.537Z,27.44
2019-03-22T17:19:36.780Z,28.03
2019-03-22T17:22:06.078Z,28.84
2019-03-22T17:24:35.480Z,28.54
2019-03-22T17:27:04.729Z,28.98
2019-03-22T17:29:33.995Z,30.02
2019-03-22T17:32:03.227Z,30.61
2019-03-22T17:34:32.437Z,30.62
2019-03-22T17:37:01.697Z,31.02
2019-03-22T17:39:30.846Z,31.92
2019-03-22T17:42:00.042Z,32.35
2019-03-22T17:44:29.764Z,32.58
2019-03-22T17:46:58.935Z,32.60
2019-03-22T17:49:28.076Z,32.96
2019-03-22T17:51:57.274Z,33.90
2019-03-22T17:54:27.413Z,34.31
2019-03-22T17:56:56.545Z,33.85
2019-03-22T17:59:26.559Z,34.48
2019-03-22T18:01:55.804Z,34.18
2019-03-22T18:04:25.009Z,34.39
2019-03-22T18:06:54.200Z,34.52
2019-03-22T18:09:23.742Z,34.32
2019-03-22T18:11:53.129Z,35.12
2019-03-22T18:14:22.394Z,35.70
2019-03-22T18:16:51.560Z,35.43
2019-03-22T18:19:21.663Z,36.19
2019-03-22T18:21:51.690Z,35.27
2019-03-22T18:24:21.487Z,36.16
2019-03-22T18:26:50.708Z,36.48
2019-03-22T18:29:20.129Z,37.30
2019-03-22T18:31:49.423Z,38.07
2019-03-22T18:34:18.587Z,37.47
2019-03-22T18:36:47.739Z,37.46
2019-03-22T18:39:17.251Z,37.57
2019-03-22T18:41:46.670Z,37.29
2019-03-22T18:44:16.712Z,38.00
2019-03-22T18:46:46.114Z,38.36
2019-03-22T18:49:15.542Z,39.12
2019-03-22T18:51:44.964Z,38.38
2019-03-22T18:54:14.171Z,38.32
2019-03-22T18:56:44.164Z,38.49
2019-03-22T18:59:13.294Z,39.49
2019-03-22T19:01:43.533Z,39.06
2019-03-22T19:04:12.656Z,38.72
2019-03-22T19:06:42.046Z,38.39
2019-03-22T19:09:11.179Z,38.76
2019-03-22T19:11:40.389Z,38.90
2019-03-22T19:14:10.617Z,38.31
2019-03-22T19:16:39.809Z,38.54
2019-03-22T19:19:09.236Z,39.30
2019-03-22T19:21:38.389Z,39.36
2019-03-22T19:24:07.521Z,39.60
2019-03-22T19:26:36.686Z,39.79
2019-03-22T19:29:05.851Z,40.60
2019-03-22T19:31:40.645Z,39.88
2019-03-22T19:34:10.025Z,40.35
2019-03-22T19:36:39.282Z,40.61
2019-03-22T19:39:08.602Z,40.66
2019-03-22T19:41:37.848Z,40.34
2019-03-22T19:44:07.824Z,39.65
2019-03-22T19:46:36.976Z,39.79
2019-03-22T19:49:06.164Z,40.87
2019-03-22T19:51:35.346Z,41.00
2019-03-22T19:54:05.296Z,40.83
2019-03-22T19:56:34.478Z,41.40
2019-03-22T19:59:03.747Z,40.68
2019-03-22T20:01:33.041Z,40.87
2019-03-22T20:04:02.281Z,41.73
2019-03-22T20:06:31.444Z,41.57
2019-03-22T20:09:01.498Z,42.35
2019-03-22T20:11:30.774Z,42.36
2019-03-22T20:13:59.932Z,41.08
2019-03-22T20:16:29.079Z,41.44
2019-03-22T20:18:59.044Z,41.79
2019-03-22T20:21:28.179Z,42.41
2019-03-22T20:23:57.334Z,41.29
2019-03-22T20:26:26.871Z,41.20
2019-03-22T20:28:56.452Z,41.93
2019-03-22T20:31:25.640Z,42.47
2019-03-22T20:33:54.800Z,43.66
2019-03-22T20:36:24.230Z,43.03
2019-03-22T20:38:53.432Z,42.69
2019-03-22T20:41:23.159Z,43.20
2019-03-22T20:43:53.086Z,43.20
2019-03-22T20:46:22.579Z,41.18
2019-03-22T20:48:52.946Z,41.18
2019-03-22T20:51:22.200Z,41.91
2019-03-22T20:53:51.945Z,41.68
2019-03-22T20:56:21.155Z,42.69
2019-03-22T20:58:50.392Z,42.69
2019-03-22T21:01:19.554Z,42.04
2019-03-22T21:03:48.715Z,42.22
2019-03-22T21:06:18.114Z,43.66
2019-03-22T21:08:47.318Z,42.42
2019-03-22T21:11:17.391Z,42.59
2019-03-22T21:13:47.055Z,41.46
2019-03-22T21:16:16.430Z,39.92
2019-03-22T21:18:46.811Z,39.26
2019-03-22T21:21:16.340Z,42.38
2019-03-22T21:23:45.823Z,41.55
2019-03-22T21:26:15.010Z,41.76
2019-03-22T21:28:44.204Z,40.88
2019-03-22T21:31:13.390Z,39.80
2019-03-22T21:33:42.598Z,40.13
2019-03-22T21:36:11.954Z,39.17
2019-03-22T21:38:41.113Z,38.97
2019-03-22T21:41:10.479Z,38.88
2019-03-22T21:43:39.914Z,38.74
2019-03-22T21:46:09.089Z,38.88
2019-03-22T21:48:38.233Z,38.98
2019-03-22T21:51:07.900Z,39.22
2019-03-22T21:53:37.053Z,38.71
2019-03-22T21:56:06.201Z,39.20
2019-03-22T21:58:35.342Z,40.03
2019-03-22T22:01:04.478Z,40.04
2019-03-22T22:03:33.610Z,39.52
2019-03-22T22:06:03.762Z,39.40
2019-03-22T22:08:33.193Z,39.94
2019-03-22T22:11:02.595Z,39.35
2019-03-22T22:13:31.776Z,39.92
2019-03-22T22:16:00.922Z,39.15
2019-03-22T22:18:30.051Z,39.88
2019-03-22T22:20:59.191Z,39.33
2019-03-22T22:23:29.378Z,39.47
2019-03-22T22:25:58.501Z,39.41
2019-03-22T22:28:27.896Z,39.41
2019-03-22T22:30:57.074Z,39.34
2019-03-22T22:33:26.219Z,38.67
2019-03-22T22:35:58.801Z,38.67
2019-03-22T22:38:26.281Z,39.24
2019-03-22T22:40:55.423Z,40.18
2019-03-22T22:43:24.853Z,39.51
2019-03-22T22:45:54.013Z,39.51
2019-03-22T22:48:23.162Z,40.30
2019-03-22T22:50:52.304Z,39.38
2019-03-22T22:53:21.609Z,39.38
2019-03-22T22:55:50.731Z,40.41
2019-03-22T22:58:20.118Z,40.41
2019-03-22T23:00:49.563Z,39.90
2019-03-22T23:03:18.952Z,39.70
2019-03-22T23:05:48.091Z,39.67
2019-03-22T23:08:17.953Z,40.46
2019-03-22T23:10:47.196Z,40.45
2019-03-22T23:13:16.419Z,41.87
2019-03-22T23:15:45.544Z,40.35
2019-03-22T23:18:14.954Z,40.09
2019-03-22T23:20:44.881Z,39.78
2019-03-22T23:23:14.092Z,41.33
2019-03-22T23:25:44.264Z,39.86
2019-03-22T23:28:13.995Z,39.63
2019-03-22T23:30:43.151Z,39.59
2019-03-22T23:33:12.292Z,39.59
2019-03-22T23:35:42.437Z,40.31
2019-03-22T23:38:11.661Z,40.36
2019-03-22T23:40:40.822Z,40.15
2019-03-22T23:43:09.948Z,40.38
2019-03-22T23:45:39.084Z,39.23
2019-03-22T23:48:08.983Z,39.99
2019-03-22T23:50:38.111Z,39.64
2019-03-22T23:53:07.279Z,40.72
2019-03-22T23:55:36.485Z,41.93
2019-03-22T23:58:06.084Z,41.48
